Time;durP1;ratioP1;P1;durP2;ratioP2;P2;SDS_P1;SDS_P2;PMS_P1;PMS_P2;Temp;Humidity;BMP_temperature;BMP_pressure;BME280_temperature;BME280_humidity;BME280_pressure;Samples;Min_cycle;Max_cycle;Signal;HPM_P1;HPM_P2
2022/08/11 00:02:07;;;;;;;1.40;1.30;;;;;;;21.19;43.24;102186.47;4958089;28;97846;-47
2022/08/11 00:04:38;;;;;;;0.97;0.97;;;;;;;21.16;43.54;102181.94;4957088;28;96985;-48
2022/08/11 00:07:05;;;;;;;3.40;1.03;;;;;;;21.11;43.17;102185.56;4964113;28;96897;-50
2022/08/11 00:09:35;;;;;;;1.10;1.07;;;;;;;21.08;43.30;102186.59;4962032;28;97757;-47
2022/08/11 00:12:01;;;;;;;1.13;1.03;;;;;;;21.05;43.20;102193.28;4957220;28;97119;-48
2022/08/11 00:14:28;;;;;;;0.90;0.90;;;;;;;21.00;43.45;102179.31;4959460;28;96873;-48
2022/08/11 00:16:58;;;;;;;1.13;1.13;;;;;;;20.95;43.70;102172.50;4957539;28;96966;-48
2022/08/11 00:19:26;;;;;;;1.30;1.30;;;;;;;20.89;43.74;102183.78;4961205;28;97048;-48
2022/08/11 00:21:53;;;;;;;1.73;1.40;;;;;;;20.85;43.59;102176.97;4957763;28;97046;-48
2022/08/11 00:24:20;;;;;;;3.07;1.30;;;;;;;20.81;43.81;102187.69;4955144;28;97208;-49
2022/08/11 00:26:50;;;;;;;1.10;1.10;;;;;;;20.77;44.13;102185.19;4957746;28;97570;-48
2022/08/11 00:29:20;;;;;;;3.37;1.37;;;;;;;20.73;43.89;102178.38;4956497;28;100186;-48
2022/08/11 00:31:53;;;;;;;1.03;0.97;;;;;;;20.70;44.42;102183.00;4955813;28;97168;-48
2022/08/11 00:34:28;;;;;;;2.40;2.13;;;;;;;20.66;44.71;102182.50;4959900;28;97094;-48
2022/08/11 00:36:58;;;;;;;1.40;1.30;;;;;;;20.63;44.34;102188.41;4956512;28;101722;-48
2022/08/11 00:39:26;;;;;;;1.70;1.60;;;;;;;20.60;43.92;102187.41;4961858;28;102484;-48
2022/08/11 00:42:29;;;;;;;3.20;1.63;;;;;;;20.55;44.14;102182.63;4956732;28;97161;-48
2022/08/11 00:45:24;;;;;;;1.40;1.30;;;;;;;20.47;45.09;102184.50;4924294;28;97280;-48
2022/08/11 00:48:07;;;;;;;1.10;1.10;;;;;;;20.43;45.00;102189.66;4959253;28;103202;-47
2022/08/11 00:51:08;;;;;;;1.40;1.30;;;;;;;20.36;45.08;102183.88;4956237;28;97260;-47
2022/08/11 00:53:42;;;;;;;1.10;1.10;;;;;;;20.33;44.79;102187.72;4958261;28;96803;-47
2022/08/11 00:56:07;;;;;;;3.53;1.30;;;;;;;20.29;44.15;102190.06;4956370;28;97477;-47
2022/08/11 00:58:39;;;;;;;1.20;1.20;;;;;;;20.22;44.40;102183.00;4955210;28;97660;-47
2022/08/11 01:01:12;;;;;;;1.10;1.10;;;;;;;20.19;44.94;102187.56;4957844;28;97753;-47
2022/08/11 01:03:59;;;;;;;1.20;1.20;;;;;;;20.15;45.40;102187.09;4959159;28;96995;-47
2022/08/11 01:06:49;;;;;;;1.37;1.27;;;;;;;20.09;45.42;102188.44;4959959;28;97017;-49
2022/08/11 01:09:45;;;;;;;1.30;1.30;;;;;;;20.03;45.69;102196.09;4957834;28;98668;-47
2022/08/11 01:12:19;;;;;;;1.00;1.00;;;;;;;19.96;44.78;102224.63;4958405;28;101483;-48
2022/08/11 01:15:06;;;;;;;1.23;1.23;;;;;;;19.91;44.88;102195.44;4958464;28;97069;-47
2022/08/11 01:17:34;;;;;;;1.03;1.03;;;;;;;19.86;44.83;102195.47;4959447;28;96909;-47
2022/08/11 01:20:14;;;;;;;1.37;1.27;;;;;;;19.82;45.85;102206.19;4954905;28;100749;-48
2022/08/11 01:23:15;;;;;;;1.50;1.20;;;;;;;19.76;46.17;102194.28;4954977;28;101575;-48
2022/08/11 01:26:11;;;;;;;1.20;1.20;;;;;;;19.75;45.98;102192.75;4954620;28;96935;-47
2022/08/11 01:29:23;;;;;;;1.50;1.40;;;;;;;19.68;46.30;102187.75;4956376;28;97045;-48
2022/08/11 01:32:08;;;;;;;1.87;1.20;;;;;;;19.65;46.09;102183.19;4959792;28;101829;-48
2022/08/11 01:35:25;;;;;;;1.20;1.20;;;;;;;19.60;46.39;102193.13;4954253;28;97068;-47
2022/08/11 01:38:26;;;;;;;1.20;1.10;;;;;;;19.58;46.57;102189.34;4958360;28;97093;-48
2022/08/11 01:41:12;;;;;;;1.07;0.97;;;;;;;19.54;46.43;102197.25;4958426;28;97503;-47
2022/08/11 01:47:49;;;;;;;1.50;1.40;;;;;;;19.48;46.74;102188.16;4957269;28;100275;-47
2022/08/11 01:50:13;;;;;;;1.27;1.10;;;;;;;19.47;46.19;102192.97;4956687;28;97036;-47
2022/08/11 01:53:08;;;;;;;1.70;1.60;;;;;;;19.43;46.27;102190.47;4955237;28;97779;-48
2022/08/11 01:55:46;;;;;;;1.50;1.40;;;;;;;19.39;46.38;102192.00;4946727;28;103077;-47
2022/08/11 01:58:33;;;;;;;0.97;0.97;;;;;;;19.35;46.46;102195.06;4956336;28;101708;-48
2022/08/11 02:01:08;;;;;;;1.47;1.37;;;;;;;19.30;46.17;102195.06;4956529;28;97024;-48
2022/08/11 02:03:47;;;;;;;2.50;1.30;;;;;;;19.25;46.77;102193.81;4955769;28;98387;-48
2022/08/11 02:09:40;;;;;;;1.30;1.20;;;;;;;19.18;45.91;102188.03;4958514;28;100217;-47
2022/08/11 02:12:25;;;;;;;0.90;0.90;;;;;;;19.15;46.59;102183.50;4957246;28;96949;-47
2022/08/11 02:15:19;;;;;;;1.73;1.40;;;;;;;19.10;47.03;102184.25;4956371;28;96786;-48
2022/08/11 02:18:17;;;;;;;1.33;1.20;;;;;;;19.06;47.33;102183.78;4951637;28;102091;-48
2022/08/11 02:24:02;;;;;;;1.50;1.40;;;;;;;18.95;46.76;102187.38;4957247;28;97668;-48
2022/08/11 02:26:35;;;;;;;1.73;1.10;;;;;;;18.88;46.33;102182.34;4955868;28;97070;-47
2022/08/11 02:29:16;;;;;;;1.23;1.20;;;;;;;18.88;47.26;102185.13;4954910;28;100646;-48
2022/08/11 02:34:58;;;;;;;1.20;1.20;;;;;;;18.77;46.80;102187.19;4955058;28;97069;-48
2022/08/11 02:37:36;;;;;;;3.07;1.10;;;;;;;18.75;46.88;102190.50;4959996;28;96996;-48
2022/08/11 02:40:33;;;;;;;1.10;1.10;;;;;;;18.67;47.63;102193.03;4959574;28;97343;-47
2022/08/11 02:43:20;;;;;;;4.40;1.27;;;;;;;18.64;47.37;102196.88;4955684;28;101694;-47
2022/08/11 02:45:54;;;;;;;1.30;1.20;;;;;;;18.60;46.82;102192.84;4956310;28;97386;-47
2022/08/11 02:51:18;;;;;;;1.87;1.20;;;;;;;18.51;47.38;102184.75;4958829;28;100359;-48
2022/08/11 02:54:09;;;;;;;1.27;1.27;;;;;;;18.46;48.00;102193.88;4957013;28;97135;-48
2022/08/11 02:56:43;;;;;;;1.50;1.40;;;;;;;18.45;47.45;102193.13;4955042;28;97190;-48
2022/08/11 02:59:51;;;;;;;1.57;1.47;;;;;;;18.44;47.62;102185.22;4953940;28;97314;-48
2022/08/11 03:02:41;;;;;;;2.53;1.27;;;;;;;18.38;48.15;102190.06;4952638;28;101992;-47
2022/08/11 03:05:15;;;;;;;1.80;1.57;;;;;;;18.36;47.21;102187.03;4955938;28;101579;-48
2022/08/11 03:08:22;;;;;;;1.10;1.10;;;;;;;18.33;48.18;102185.25;4955879;28;97074;-48
2022/08/11 03:17:35;;;;;;;1.17;1.10;;;;;;;18.21;47.44;102186.53;4958307;28;101308;-48
2022/08/11 03:20:39;;;;;;;1.07;1.07;;;;;;;18.18;48.33;102182.75;4958599;28;97277;-48
2022/08/11 03:23:13;;;;;;;3.23;1.37;;;;;;;18.18;47.59;102187.56;4953743;28;97027;-47
2022/08/11 03:25:53;;;;;;;1.30;1.20;;;;;;;18.14;48.29;102185.03;4953970;28;96801;-48
2022/08/11 03:28:31;;;;;;;1.53;1.43;;;;;;;18.11;48.12;102183.25;4955591;28;97375;-48
2022/08/11 03:31:14;;;;;;;3.33;1.03;;;;;;;18.09;47.62;102188.56;4958190;28;97078;-48
2022/08/11 03:34:01;;;;;;;2.10;1.47;;;;;;;18.06;48.11;102188.84;4954636;28;97103;-48
2022/08/11 03:36:57;;;;;;;1.17;1.17;;;;;;;17.99;48.52;102184.53;4954151;28;97555;-47
2022/08/11 03:39:29;;;;;;;1.20;1.10;;;;;;;17.94;48.24;102183.28;4958819;28;100899;-48
2022/08/11 03:42:32;;;;;;;1.60;1.50;;;;;;;17.92;48.73;102185.03;4957604;28;97295;-48
2022/08/11 03:45:24;;;;;;;1.13;1.13;;;;;;;17.89;48.83;102191.59;4957984;28;97272;-48
2022/08/11 03:48:21;;;;;;;1.23;1.13;;;;;;;17.84;48.71;102187.56;4953469;28;100529;-48
2022/08/11 03:51:11;;;;;;;1.50;1.40;;;;;;;17.77;48.96;102184.53;4957376;28;100033;-48
2022/08/11 03:54:08;;;;;;;1.30;1.20;;;;;;;17.74;48.91;102183.50;4954690;28;97089;-47
2022/08/11 03:56:56;;;;;;;1.30;1.20;;;;;;;17.73;48.96;102187.56;4956256;28;97168;-48
2022/08/11 03:59:52;;;;;;;1.57;1.30;;;;;;;17.71;48.88;102190.06;4957743;28;100522;-47
2022/08/11 04:02:17;;;;;;;2.77;1.00;;;;;;;17.66;48.04;102187.31;4950218;28;102308;-48
2022/08/11 04:05:01;;;;;;;1.70;1.40;;;;;;;17.63;49.09;102177.94;4955471;28;97227;-48
2022/08/11 04:07:32;;;;;;;1.37;1.37;;;;;;;17.60;48.54;102192.09;4955834;28;96951;-48
2022/08/11 04:10:35;;;;;;;2.50;2.00;;;;;;;17.59;49.27;102183.00;4952077;28;101994;-48
2022/08/11 04:13:38;;;;;;;1.30;1.20;;;;;;;17.57;49.20;102184.75;4956356;28;100163;-48
2022/08/11 04:16:25;;;;;;;1.10;1.10;;;;;;;17.55;48.44;102187.28;4955861;28;97094;-48
2022/08/11 04:19:18;;;;;;;4.03;1.33;;;;;;;17.52;49.10;102183.47;4956221;28;96698;-48
2022/08/11 04:22:22;;;;;;;1.37;1.27;;;;;;;17.46;49.51;102184.69;4957832;28;100491;-48
2022/08/11 04:24:58;;;;;;;1.33;1.33;;;;;;;17.46;49.12;102187.50;4954645;28;102986;-48
2022/08/11 04:28:00;;;;;;;1.50;1.40;;;;;;;17.44;49.48;102187.22;4956588;28;97314;-48
2022/08/11 04:31:03;;;;;;;1.20;1.10;;;;;;;17.42;49.45;102186.97;4955952;28;97286;-48
2022/08/11 04:34:06;;;;;;;1.30;1.30;;;;;;;17.40;49.83;102183.94;4957972;28;101769;-48
2022/08/11 04:40:17;;;;;;;1.57;1.47;;;;;;;17.36;49.76;102184.19;4956285;28;103742;-48
2022/08/11 04:43:19;;;;;;;1.77;1.67;;;;;;;17.36;49.63;102189.75;4958781;28;97394;-48
2022/08/11 04:45:48;;;;;;;1.00;1.00;;;;;;;17.37;49.02;102187.72;4960377;28;101738;-47
2022/08/11 05:07:58;;;;;;;1.33;1.23;;;;;;;17.38;50.12;102187.22;4955634;28;97134;-48
2022/08/11 05:10:35;;;;;;;1.23;1.23;;;;;;;17.41;49.79;102185.47;4956954;28;100345;-48
2022/08/11 05:36:39;;;;;;;1.57;1.47;;;;;;;17.62;50.51;102206.28;4958512;28;100241;-48
2022/08/11 05:58:43;;;;;;;1.53;1.43;;;;;;;18.05;50.05;102192.88;4948482;28;100916;-48
2022/08/11 06:01:35;;;;;;;1.33;1.23;;;;;;;18.11;50.87;102185.31;4956626;28;97315;-47
2022/08/11 06:04:15;;;;;;;1.50;1.40;;;;;;;18.19;50.33;102186.28;4955727;28;96985;-48
2022/08/11 06:07:01;;;;;;;1.37;1.33;;;;;;;18.28;50.92;102188.81;4957206;28;102150;-47
2022/08/11 06:09:31;;;;;;;1.40;1.40;;;;;;;18.36;50.06;102187.03;4953818;28;100227;-48
2022/08/11 06:12:01;;;;;;;1.77;1.40;;;;;;;18.42;50.07;102187.78;4955341;28;98131;-47
2022/08/11 06:14:28;;;;;;;2.87;1.30;;;;;;;18.49;50.00;102190.84;4956057;28;97034;-48
2022/08/11 06:16:58;;;;;;;1.10;1.10;;;;;;;18.59;50.21;102182.94;4953081;28;97561;-48
2022/08/11 06:19:31;;;;;;;1.63;1.17;;;;;;;18.69;50.43;102181.41;4960172;28;101802;-47
2022/08/11 06:21:56;;;;;;;2.60;1.33;;;;;;;18.79;49.98;102182.63;4957659;28;97371;-47
2022/08/11 06:24:22;;;;;;;8.03;1.47;;;;;;;18.89;49.98;102181.09;4955012;28;97069;-48
2022/08/11 06:26:50;;;;;;;1.60;1.50;;;;;;;19.02;50.11;102180.50;4958037;28;96927;-47
2022/08/11 06:29:17;;;;;;;1.30;1.20;;;;;;;19.14;50.09;102188.31;4959369;28;97221;-47
2022/08/11 06:31:58;;;;;;;5.80;1.50;;;;;;;19.27;50.51;102187.72;4954047;28;96733;-50
2022/08/11 06:34:34;;;;;;;2.40;1.67;;;;;;;19.40;50.68;102183.13;4958910;28;96767;-47
2022/08/11 06:37:14;;;;;;;1.17;1.17;;;;;;;19.56;50.73;102183.50;4954676;28;97031;-47
2022/08/11 06:39:53;;;;;;;1.60;1.50;;;;;;;19.71;50.06;102181.88;4959005;28;102423;-47
2022/08/11 06:42:36;;;;;;;2.90;1.40;;;;;;;19.91;50.30;102180.72;4956664;28;97220;-48
2022/08/11 06:45:18;;;;;;;1.53;1.43;;;;;;;20.05;50.62;102177.53;4956451;28;97034;-47
2022/08/11 06:47:46;;;;;;;1.40;1.30;;;;;;;20.22;49.87;102183.00;4953712;28;97814;-47
2022/08/11 06:53:04;;;;;;;2.30;1.60;;;;;;;20.53;49.75;102185.19;4956887;28;97005;-49
2022/08/11 07:01:09;;;;;;;1.40;1.30;;;;;;;20.96;49.74;102190.06;4953832;28;100253;-47
2022/08/11 07:03:41;;;;;;;2.00;1.80;;;;;;;21.13;49.64;102179.41;4954483;28;97313;-48
2022/08/11 07:06:37;;;;;;;2.60;1.17;;;;;;;21.29;50.06;102178.44;4958239;28;97003;-48
2022/08/11 07:17:42;;;;;;;4.30;1.70;;;;;;;22.03;48.45;102189.53;4957008;28;97281;-48
2022/08/11 07:28:56;;;;;;;20.67;2.30;;;;;;;22.65;48.00;102192.00;4954540;28;97356;-48
2022/08/11 07:31:31;;;;;;;2.13;1.30;;;;;;;22.80;48.05;102195.72;4954094;28;101701;-48
2022/08/11 07:34:14;;;;;;;1.47;1.37;;;;;;;22.95;48.22;102195.19;4957735;28;101674;-48
2022/08/11 07:36:44;;;;;;;1.27;1.17;;;;;;;23.08;47.32;102193.13;4957416;28;97167;-48
2022/08/11 07:39:18;;;;;;;2.33;1.30;;;;;;;23.28;47.14;102202.16;4953938;28;97578;-48
2022/08/11 07:41:45;;;;;;;1.60;1.50;;;;;;;23.43;46.80;102191.88;4956892;28;98624;-49
2022/08/11 07:44:13;;;;;;;1.63;1.53;;;;;;;23.60;46.38;102186.59;4960605;28;96922;-49
2022/08/11 07:54:59;;;;;;;2.33;2.13;;;;;;;24.24;45.68;102186.06;4954626;28;100283;-48
2022/08/11 08:19:23;;;;;;;1.30;1.20;;;;;;;25.60;43.91;102192.34;4952341;28;97353;-48
2022/08/11 08:21:49;;;;;;;4.30;1.40;;;;;;;25.76;44.06;102182.56;4959791;28;96928;-49
2022/08/11 08:24:18;;;;;;;1.50;1.40;;;;;;;25.89;43.31;102190.84;4960112;28;97009;-48
2022/08/11 08:26:59;;;;;;;1.43;1.33;;;;;;;26.00;43.24;102188.41;4957901;28;101785;-48
2022/08/11 08:32:17;;;;;;;1.50;1.40;;;;;;;26.26;42.76;102187.28;4958491;28;97201;-48
2022/08/11 08:34:43;;;;;;;1.80;1.70;;;;;;;26.41;42.57;102183.69;4958993;28;97035;-48
2022/08/11 08:37:09;;;;;;;1.73;1.53;;;;;;;26.54;41.99;102181.38;4958755;28;98581;-48
2022/08/11 08:39:36;;;;;;;1.83;1.57;;;;;;;26.70;41.97;102180.03;4956600;28;97257;-48
2022/08/11 08:42:08;;;;;;;1.93;1.83;;;;;;;26.85;41.29;102190.56;4958159;28;97062;-49
2022/08/11 08:44:38;;;;;;;1.63;1.43;;;;;;;27.02;41.19;102181.47;4961018;28;98823;-48
2022/08/11 08:47:04;;;;;;;1.70;1.60;;;;;;;27.20;41.33;102183.03;4956952;28;98402;-47
2022/08/11 08:49:34;;;;;;;1.70;1.60;;;;;;;27.40;40.87;102182.00;4964531;28;97057;-48
2022/08/11 08:52:07;;;;;;;1.40;1.30;;;;;;;27.57;39.99;102182.09;4960488;28;97250;-48
2022/08/11 08:54:35;;;;;;;1.83;1.70;;;;;;;27.68;40.25;102189.34;4956732;28;97410;-48
2022/08/11 08:57:04;;;;;;;1.50;1.50;;;;;;;27.86;40.24;102179.59;4958374;28;98559;-48
2022/08/11 08:59:32;;;;;;;1.60;1.50;;;;;;;28.05;40.04;102182.66;4956346;28;97362;-48
2022/08/11 09:02:00;;;;;;;1.53;1.43;;;;;;;28.19;39.52;102173.31;4959363;28;97363;-48
2022/08/11 09:04:27;;;;;;;1.63;1.53;;;;;;;28.29;38.91;102181.88;4960196;28;97539;-48
2022/08/11 09:06:55;;;;;;;3.27;1.60;;;;;;;28.38;38.31;102174.81;4959006;28;97356;-54
2022/08/11 09:09:21;;;;;;;1.30;1.20;;;;;;;28.48;38.51;102164.31;4959703;28;97039;-48
2022/08/11 09:11:53;;;;;;;2.67;1.60;;;;;;;28.68;38.32;102163.19;4962646;28;97012;-48
2022/08/11 09:14:23;;;;;;;1.67;1.43;;;;;;;28.83;37.84;102169.41;4959271;28;98673;-48
2022/08/11 09:16:50;;;;;;;3.43;1.50;;;;;;;28.93;36.98;102184.41;4956017;28;98828;-49
2022/08/11 09:19:18;;;;;;;1.63;1.53;;;;;;;28.99;36.79;102164.28;4958334;28;96822;-49
2022/08/11 09:27:21;;;;;;;1.10;1.10;;;;;;;29.48;35.99;102151.91;4952744;28;100222;-49
2022/08/11 09:29:47;;;;;;;1.90;1.33;;;;;;;29.61;35.72;102155.09;4962626;28;97301;-49
2022/08/11 09:32:13;;;;;;;1.40;1.00;;;;;;;29.75;35.60;102149.75;4959262;28;97465;-48
2022/08/11 09:34:39;;;;;;;1.50;1.40;;;;;;;29.86;34.68;102145.63;4957184;28;96947;-49
2022/08/11 09:45:22;;;;;;;1.20;1.10;;;;;;;30.38;33.28;102137.50;4953639;28;100648;-49
2022/08/11 09:47:48;;;;;;;1.00;0.80;;;;;;;30.48;33.04;102136.16;4960287;28;97025;-49
2022/08/11 09:50:15;;;;;;;1.00;0.80;;;;;;;30.58;33.12;102136.88;4961727;28;97234;-48
2022/08/11 09:52:44;;;;;;;0.83;0.83;;;;;;;30.73;32.37;102125.19;4954856;28;96888;-48
2022/08/11 09:55:12;;;;;;;1.10;0.90;;;;;;;30.88;32.49;102133.44;4958414;28;97170;-48
2022/08/11 10:00:31;;;;;;;1.73;0.90;;;;;;;31.16;32.32;102134.72;4959794;28;97033;-48
2022/08/11 10:02:58;;;;;;;1.10;0.80;;;;;;;31.27;31.82;102130.47;4955722;28;97398;-49
2022/08/11 10:08:12;;;;;;;1.20;1.10;;;;;;;31.46;31.74;102116.94;4957502;28;97130;-48
2022/08/11 10:10:38;;;;;;;1.10;1.10;;;;;;;31.54;31.58;102122.47;4957667;28;97114;-48
2022/08/11 10:13:13;;;;;;;0.90;0.90;;;;;;;31.62;31.02;102118.06;4960196;28;96941;-48
2022/08/11 10:15:44;;;;;;;1.00;0.90;;;;;;;31.66;31.08;102112.66;4959837;28;97038;-48
2022/08/11 10:21:06;;;;;;;1.43;1.10;;;;;;;31.60;30.55;102103.72;4955345;28;97078;-49
2022/08/11 10:33:58;;;;;;;1.00;0.90;;;;;;;31.62;30.25;102103.09;4955033;28;100219;-48
2022/08/11 10:34:41;;;;;;;1.67;0.93;;;;;;;31.60;30.37;102080.19;4954305;28;97234;-50
2022/08/11 10:37:07;;;;;;;1.27;0.80;;;;;;;31.71;30.16;102071.72;4958934;28;97416;-48
2022/08/11 10:39:34;;;;;;;3.13;1.03;;;;;;;31.81;30.29;102077.34;4956186;28;98353;-48
2022/08/11 10:44:49;;;;;;;1.83;1.07;;;;;;;31.88;29.94;102067.84;4961666;28;97268;-48
2022/08/11 10:47:34;;;;;;;0.90;0.90;;;;;;;31.92;29.71;102076.66;4959000;28;102280;-49
2022/08/11 11:01:06;;;;;;;2.13;1.90;;;;;;;32.25;29.17;102051.84;4956937;28;100099;-49
2022/08/11 11:03:34;;;;;;;1.10;1.10;;;;;;;32.32;28.88;102048.03;4956433;28;97059;-48
2022/08/11 11:06:32;;;;;;;14.03;1.37;;;;;;;32.35;28.63;102037.50;4955145;28;96737;-47
2022/08/11 11:09:13;;;;;;;2.00;1.20;;;;;;;32.46;28.65;102040.38;4953509;28;100574;-47
2022/08/11 11:20:15;;;;;;;1.00;0.90;;;;;;;32.56;27.60;102050.97;4954220;28;100384;-49
2022/08/11 11:22:46;;;;;;;1.53;1.10;;;;;;;32.55;27.45;102040.94;4954009;28;97315;-48
2022/08/11 11:26:05;;;;;;;1.20;1.10;;;;;;;32.53;26.13;102039.44;4955446;28;97040;-49
2022/08/11 11:28:35;;;;;;;1.00;0.90;;;;;;;32.63;26.88;102038.59;4954389;28;97733;-48
2022/08/11 11:31:09;;;;;;;0.70;0.70;;;;;;;32.80;26.40;102036.13;4955113;28;97441;-49
2022/08/11 11:33:52;;;;;;;1.00;0.90;;;;;;;33.00;26.73;102022.41;4955715;28;97250;-48
2022/08/11 11:36:49;;;;;;;1.23;0.77;;;;;;;33.17;26.05;102033.44;4955084;28;97279;-47
2022/08/11 11:39:20;;;;;;;1.00;0.90;;;;;;;33.35;26.38;102040.25;4954908;28;97081;-48
2022/08/11 11:41:48;;;;;;;1.90;0.93;;;;;;;33.52;26.51;102034.19;4955542;28;97072;-48
2022/08/11 11:44:14;;;;;;;1.90;1.00;;;;;;;33.71;26.20;102033.88;4951451;28;97184;-49
2022/08/11 11:46:40;;;;;;;1.07;0.80;;;;;;;33.79;25.92;102030.75;4957962;28;96575;-48
2022/08/11 11:49:08;;;;;;;1.10;1.00;;;;;;;33.88;25.74;102039.16;4954984;28;97650;-48
2022/08/11 11:51:36;;;;;;;0.83;0.83;;;;;;;33.84;24.73;102030.34;4954442;28;97149;-49
2022/08/11 11:54:03;;;;;;;2.80;0.90;;;;;;;33.64;25.25;102022.75;4956861;28;97995;-48
2022/08/11 11:56:29;;;;;;;1.43;1.00;;;;;;;33.71;25.09;102028.16;4953472;28;96743;-48
2022/08/11 12:01:42;;;;;;;1.37;0.67;;;;;;;34.04;24.80;102024.34;4950612;28;97111;-49
2022/08/11 12:04:10;;;;;;;2.00;0.83;;;;;;;34.09;24.83;102017.50;4957303;28;97117;-48
2022/08/11 12:06:36;;;;;;;0.97;0.90;;;;;;;34.23;24.19;102024.03;4960325;28;97081;-48
2022/08/11 12:09:04;;;;;;;1.20;1.10;;;;;;;34.35;24.18;102019.72;4957024;28;98592;-50
2022/08/11 12:14:17;;;;;;;0.73;0.73;;;;;;;34.38;23.65;102009.88;4955786;28;102276;-49
2022/08/11 12:16:45;;;;;;;0.80;0.70;;;;;;;34.49;23.91;102002.63;4958067;28;97355;-48
2022/08/11 12:19:13;;;;;;;1.43;0.80;;;;;;;34.73;23.06;102009.66;4956455;28;98004;-50
2022/08/11 12:27:19;;;;;;;0.87;0.73;;;;;;;35.26;22.95;101993.94;4955129;28;97268;-48
2022/08/11 12:29:50;;;;;;;5.40;0.87;;;;;;;35.36;22.61;102005.88;4958558;28;97034;-48
2022/08/11 12:32:18;;;;;;;1.07;0.70;;;;;;;35.52;22.84;101997.41;4958316;28;97573;-48
2022/08/11 12:34:44;;;;;;;2.47;0.60;;;;;;;35.56;22.89;101988.31;4956383;28;98524;-48
2022/08/11 12:37:11;;;;;;;0.90;0.83;;;;;;;35.53;22.82;101998.91;4954400;28;97179;-48
2022/08/11 12:45:29;;;;;;;1.93;0.80;;;;;;;35.52;22.76;101985.25;4959019;28;101414;-48
2022/08/11 12:54:12;;;;;;;0.80;0.80;;;;;;;35.40;22.42;101951.72;4957095;28;100594;-48
2022/08/11 13:05:01;;;;;;;1.13;0.60;;;;;;;35.42;22.28;101953.94;4953896;28;100683;-49
2022/08/11 13:07:29;;;;;;;1.43;1.00;;;;;;;35.32;22.22;101947.72;4959881;28;97402;-49
2022/08/11 13:09:55;;;;;;;0.90;0.90;;;;;;;35.32;22.33;101944.84;4959101;28;97382;-48
2022/08/11 13:15:19;;;;;;;0.80;0.70;;;;;;;35.50;22.14;101939.28;4960183;28;101489;-48
2022/08/11 13:17:47;;;;;;;0.80;0.80;;;;;;;35.53;22.61;101938.03;4961056;28;97341;-47
2022/08/11 13:20:18;;;;;;;1.03;0.90;;;;;;;35.54;22.27;101928.78;4956121;28;98245;-48
2022/08/11 13:22:48;;;;;;;1.23;0.90;;;;;;;35.57;22.29;101938.22;4960210;28;96775;-48
2022/08/11 13:25:15;;;;;;;0.83;0.80;;;;;;;35.54;22.05;101942.38;4960709;28;96714;-48
2022/08/11 13:27:44;;;;;;;0.70;0.70;;;;;;;35.53;21.80;101940.88;4957017;28;97459;-48
2022/08/11 13:32:54;;;;;;;1.27;0.80;;;;;;;35.35;21.96;101924.25;4960866;28;96906;-49
2022/08/11 13:35:21;;;;;;;0.80;0.80;;;;;;;35.33;21.83;101921.31;4958373;28;98692;-49
2022/08/11 13:37:49;;;;;;;0.93;0.93;;;;;;;35.28;21.92;101927.44;4960617;28;97153;-48
2022/08/11 13:40:16;;;;;;;0.80;0.80;;;;;;;35.34;21.95;101917.03;4957522;28;96856;-49
2022/08/11 13:42:43;;;;;;;0.90;0.90;;;;;;;35.41;21.65;101915.97;4954148;28;97424;-49
2022/08/11 13:45:09;;;;;;;1.57;0.80;;;;;;;35.50;21.53;101917.13;4956149;28;97772;-49
2022/08/11 13:47:36;;;;;;;0.93;0.77;;;;;;;35.63;21.21;101915.59;4959327;28;97932;-49
2022/08/11 13:50:03;;;;;;;0.80;0.80;;;;;;;35.72;21.28;101914.63;4958773;28;96817;-49
2022/08/11 13:52:29;;;;;;;6.73;0.83;;;;;;;35.87;21.43;101916.78;4955474;28;96822;-48
2022/08/11 13:54:55;;;;;;;1.00;1.00;;;;;;;36.01;21.39;101909.63;4955352;28;97474;-49
2022/08/11 13:57:22;;;;;;;1.07;1.00;;;;;;;36.01;21.10;101908.88;4954090;28;97046;-48
2022/08/11 14:00:08;;;;;;;1.10;1.00;;;;;;;36.21;20.42;101903.34;4956776;28;96878;-49
2022/08/11 14:02:36;;;;;;;1.33;0.90;;;;;;;36.46;21.22;101903.84;4955744;28;96961;-48
2022/08/11 14:05:10;;;;;;;2.30;1.07;;;;;;;36.66;21.13;101895.41;4957436;28;97272;-48
2022/08/11 14:07:45;;;;;;;0.70;0.70;;;;;;;36.89;19.76;101897.88;4956251;28;97005;-48
2022/08/11 14:10:14;;;;;;;1.00;0.90;;;;;;;36.92;20.53;101887.97;4955793;28;96794;-48
2022/08/11 14:15:30;;;;;;;1.10;0.80;;;;;;;37.34;20.33;101880.38;4959195;28;100525;-48
2022/08/11 14:18:01;;;;;;;0.90;0.90;;;;;;;37.53;19.89;101882.63;4953210;28;97611;-48
2022/08/11 14:23:15;;;;;;;1.10;0.90;;;;;;;37.44;19.91;101880.84;4955121;28;96895;-48
2022/08/11 14:26:22;;;;;;;1.10;0.90;;;;;;;37.42;20.17;101884.34;4954576;28;97509;-48
2022/08/11 14:28:28;;;;;;;1.10;0.93;;;;;;;37.25;19.76;101881.44;4959439;28;101654;-49
2022/08/11 14:30:54;;;;;;;1.17;0.70;;;;;;;36.89;19.31;101874.16;4955889;28;96652;-49
2022/08/11 14:33:19;;;;;;;0.80;0.77;;;;;;;36.79;19.90;101875.19;4958381;28;97100;-48
2022/08/11 14:35:45;;;;;;;0.70;0.67;;;;;;;36.81;19.95;101877.41;4957558;28;97205;-49
2022/08/11 14:38:10;;;;;;;0.97;0.83;;;;;;;36.83;19.76;101866.75;4958689;28;97634;-49
2022/08/11 14:48:49;;;;;;;4.03;1.00;;;;;;;36.79;20.13;101860.09;4956382;28;101456;-49
2022/08/11 14:51:14;;;;;;;1.00;0.90;;;;;;;36.75;19.50;101859.94;4957724;28;97014;-48
2022/08/11 14:53:40;;;;;;;0.90;0.77;;;;;;;36.70;19.78;101852.53;4957110;28;97157;-48
2022/08/11 14:58:50;;;;;;;1.33;1.23;;;;;;;36.48;20.07;101849.44;4956049;28;97056;-48
2022/08/11 15:03:59;;;;;;;3.87;1.13;;;;;;;36.47;20.38;101845.09;4955064;28;96936;-48
2022/08/11 15:06:27;;;;;;;0.70;0.60;;;;;;;36.47;20.13;101847.97;4954124;28;96761;-49
2022/08/11 15:08:53;;;;;;;0.90;0.73;;;;;;;36.40;20.17;101839.72;4955935;28;97017;-48
2022/08/11 15:14:07;;;;;;;1.60;0.83;;;;;;;35.98;20.38;101836.41;4959497;28;97111;-48
2022/08/11 15:19:19;;;;;;;2.07;0.93;;;;;;;35.63;20.41;101846.88;4952900;28;100053;-49
2022/08/11 15:24:32;;;;;;;1.00;0.80;;;;;;;35.41;20.41;101832.19;4956150;28;97386;-49
2022/08/11 15:38:03;;;;;;;0.73;0.73;;;;;;;35.10;20.34;101812.81;4954060;28;100616;-48
2022/08/11 15:46:27;;;;;;;1.20;1.00;;;;;;;34.75;20.35;101811.72;4957279;28;96723;-49
2022/08/11 15:49:00;;;;;;;0.93;0.77;;;;;;;34.70;19.96;101807.91;4956068;28;97187;-48
2022/08/11 15:51:44;;;;;;;1.20;0.90;;;;;;;34.61;20.50;101811.72;4957618;28;97430;-48
2022/08/11 15:54:14;;;;;;;1.87;0.80;;;;;;;34.63;21.19;101808.97;4956640;28;97143;-48
2022/08/11 15:56:45;;;;;;;1.10;1.00;;;;;;;34.61;21.00;101806.00;4955201;28;97634;-48
2022/08/11 16:04:46;;;;;;;0.93;0.83;;;;;;;34.42;21.04;101794.97;4957156;28;96968;-48
2022/08/11 16:07:18;;;;;;;0.83;0.83;;;;;;;34.41;20.84;101796.34;4955295;28;97332;-49
2022/08/11 16:10:09;;;;;;;0.90;0.80;;;;;;;34.36;20.57;101789.69;4957744;28;97897;-49
2022/08/11 16:12:39;;;;;;;1.30;1.20;;;;;;;34.29;20.97;101782.19;4949688;28;101554;-50
2022/08/11 16:17:59;;;;;;;0.90;0.90;;;;;;;34.17;21.24;101790.09;4956507;28;98118;-48
2022/08/11 16:20:28;;;;;;;2.37;1.10;;;;;;;34.13;21.37;101789.16;4957513;28;98745;-49
2022/08/11 16:22:58;;;;;;;2.90;0.90;;;;;;;34.09;20.65;101794.66;4957250;28;97466;-49
2022/08/11 16:25:25;;;;;;;0.93;0.93;;;;;;;34.02;21.14;101778.56;4954844;28;97278;-49
2022/08/11 16:27:56;;;;;;;2.93;1.00;;;;;;;34.04;21.42;101784.38;4956092;28;96948;-49
2022/08/11 16:30:22;;;;;;;5.73;1.10;;;;;;;33.99;21.43;101789.84;4957744;28;97679;-49
2022/08/11 16:32:51;;;;;;;1.30;1.00;;;;;;;33.96;21.56;101778.97;4960594;28;97723;-49
2022/08/11 16:40:53;;;;;;;1.10;1.10;;;;;;;33.87;21.65;101785.59;4961564;28;97099;-48
2022/08/11 16:48:53;;;;;;;0.80;0.80;;;;;;;33.63;21.57;101785.03;4957432;28;97177;-48
2022/08/11 16:51:20;;;;;;;1.23;0.70;;;;;;;33.57;21.58;101779.00;4956823;28;97336;-48
2022/08/11 16:53:47;;;;;;;0.80;0.70;;;;;;;33.57;21.64;101778.25;4953041;28;97258;-49
2022/08/11 16:56:42;;;;;;;0.80;0.80;;;;;;;33.55;21.57;101776.00;4953921;28;97250;-48
2022/08/11 16:59:26;;;;;;;1.30;0.73;;;;;;;33.54;22.15;101776.63;4956991;28;97400;-48
2022/08/11 17:01:53;;;;;;;0.80;0.80;;;;;;;33.45;21.71;101772.56;4955760;28;101799;-49
2022/08/11 17:13:30;;;;;;;0.80;0.80;;;;;;;33.22;22.40;101767.00;4960737;28;104001;-48